createdAt,value
2019-02-10T00:00:33.193Z,6.00
2019-02-10T00:03:00.574Z,6.77
2019-02-10T00:05:28.037Z,6.87
2019-02-10T00:07:55.440Z,7.13
2019-02-10T00:10:23.693Z,6.87
2019-02-10T00:13:44.167Z,7.17
2019-02-10T00:16:17.062Z,6.77
2019-02-10T00:18:44.452Z,6.93
2019-02-10T00:21:11.812Z,6.20
2019-02-10T00:23:39.184Z,6.00
2019-02-10T00:26:06.662Z,5.80
2019-02-10T00:28:34.047Z,5.80
2019-02-10T00:31:01.457Z,6.13
2019-02-10T00:33:28.803Z,6.27
2019-02-10T00:35:56.168Z,5.70
2019-02-10T00:38:23.524Z,6.03
2019-02-10T00:40:50.947Z,6.67
2019-02-10T00:43:18.284Z,6.60
2019-02-10T00:45:45.657Z,6.53
2019-02-10T00:48:13.027Z,6.13
2019-02-10T00:50:40.566Z,6.10
2019-02-10T00:53:08.109Z,6.50
2019-02-10T00:55:36.153Z,6.10
2019-02-10T00:58:03.696Z,6.03
2019-02-10T01:00:31.435Z,5.90
2019-02-10T01:02:59.230Z,6.50
2019-02-10T01:05:26.819Z,6.20
2019-02-10T01:07:54.345Z,5.93
2019-02-10T01:10:24.809Z,6.23
2019-02-10T01:12:52.455Z,6.23
2019-02-10T01:15:20.280Z,6.20
2019-02-10T01:17:48.186Z,5.40
2019-02-10T01:20:15.707Z,5.73
2019-02-10T01:22:43.074Z,5.87
2019-02-10T01:25:10.548Z,5.30
2019-02-10T01:27:37.967Z,5.57
2019-02-10T01:30:07.211Z,6.00
2019-02-10T01:32:34.573Z,6.30
2019-02-10T01:35:01.927Z,6.17
2019-02-10T01:37:29.338Z,5.80
2019-02-10T01:39:56.684Z,5.37
2019-02-10T01:42:24.106Z,5.87
2019-02-10T01:44:51.488Z,5.83
2019-02-10T01:47:19.304Z,5.80
2019-02-10T01:49:46.958Z,5.50
2019-02-10T01:52:14.758Z,5.47
2019-02-10T01:54:42.106Z,5.93
2019-02-10T01:57:09.478Z,6.00
2019-02-10T01:59:37.806Z,5.83
2019-02-10T02:02:05.585Z,6.47
2019-02-10T02:04:33.395Z,5.83
2019-02-10T02:07:01.184Z,6.87
2019-02-10T02:09:28.797Z,6.20
2019-02-10T02:11:56.384Z,6.07
2019-02-10T02:14:24.002Z,6.37
2019-02-10T02:16:52.329Z,6.40
2019-02-10T02:19:19.702Z,6.70
2019-02-10T02:21:47.058Z,6.10
2019-02-10T02:24:14.407Z,6.60
2019-02-10T02:26:41.800Z,7.13
2019-02-10T02:29:09.189Z,6.63
2019-02-10T02:31:36.542Z,7.10
2019-02-10T02:34:04.069Z,7.40
2019-02-10T02:36:33.335Z,6.17
2019-02-10T02:39:00.760Z,5.70
2019-02-10T02:41:28.408Z,6.20
2019-02-10T02:43:55.747Z,6.13
2019-02-10T02:46:23.126Z,6.00
2019-02-10T02:48:50.496Z,6.73
2019-02-10T02:51:17.907Z,8.17
2019-02-10T02:53:45.331Z,7.87
2019-02-10T02:56:12.701Z,7.63
2019-02-10T02:58:40.055Z,8.03
2019-02-10T03:01:07.447Z,7.30
2019-02-10T03:03:34.816Z,7.53
2019-02-10T03:06:02.223Z,6.53
2019-02-10T03:08:29.585Z,7.03
2019-02-10T03:10:56.945Z,6.40
2019-02-10T03:13:24.292Z,7.27
2019-02-10T03:15:51.644Z,7.63
2019-02-10T03:18:19.098Z,8.40
2019-02-10T03:20:46.488Z,8.33
2019-02-10T03:23:14.008Z,7.87
2019-02-10T03:25:41.368Z,7.70
2019-02-10T03:28:08.749Z,7.87
2019-02-10T03:30:36.131Z,7.80
2019-02-10T03:33:03.493Z,7.67
2019-02-10T03:35:30.830Z,7.90
2019-02-10T03:37:58.309Z,7.47
2019-02-10T03:40:25.673Z,7.77
2019-02-10T03:42:53.028Z,8.20
2019-02-10T03:45:20.407Z,7.87
2019-02-10T03:47:47.767Z,7.13
2019-02-10T03:50:15.167Z,7.83
2019-02-10T03:52:42.548Z,6.70
2019-02-10T03:55:10.623Z,7.00
2019-02-10T03:57:37.992Z,7.00
2019-02-10T04:00:05.551Z,7.30
2019-02-10T04:02:32.914Z,6.83
2019-02-10T04:05:00.330Z,6.60
2019-02-10T04:07:35.613Z,6.90
2019-02-10T04:09:56.968Z,6.83
2019-02-10T04:12:24.334Z,6.30
2019-02-10T04:14:51.705Z,6.50
2019-02-10T04:17:19.076Z,6.17
2019-02-10T04:19:46.430Z,6.40
2019-02-10T04:22:13.791Z,6.30
2019-02-10T04:24:41.160Z,7.03
2019-02-10T04:27:08.536Z,6.83
2019-02-10T04:29:35.884Z,7.17
2019-02-10T04:32:03.577Z,6.50
2019-02-10T04:34:30.934Z,7.20
2019-02-10T04:36:58.269Z,6.77
2019-02-10T04:39:25.639Z,6.87
2019-02-10T04:41:53.019Z,6.30
2019-02-10T04:44:20.457Z,6.47
2019-02-10T04:46:47.813Z,7.03
2019-02-10T04:49:15.194Z,6.13
2019-02-10T04:51:42.565Z,6.27
2019-02-10T04:54:09.940Z,6.30
2019-02-10T04:56:37.305Z,6.57
2019-02-10T04:59:05.169Z,6.60
2019-02-10T05:01:32.896Z,6.33
2019-02-10T05:04:00.669Z,6.43
2019-02-10T05:06:28.426Z,6.77
2019-02-10T05:08:56.084Z,6.23
2019-02-10T05:11:23.636Z,7.03
2019-02-10T05:13:51.357Z,6.57
2019-02-10T05:16:18.705Z,6.70
2019-02-10T05:18:46.054Z,6.80
2019-02-10T05:21:13.418Z,6.33
2019-02-10T05:23:40.759Z,6.63
2019-02-10T05:26:08.132Z,6.30
2019-02-10T05:28:35.515Z,6.03
2019-02-10T05:31:02.871Z,6.13
2019-02-10T05:33:30.244Z,5.67
2019-02-10T05:35:57.631Z,6.03
2019-02-10T05:38:25.009Z,5.90
2019-02-10T05:40:52.755Z,6.90
2019-02-10T05:43:20.081Z,6.97
2019-02-10T05:45:47.466Z,6.47
2019-02-10T05:48:14.858Z,7.17
2019-02-10T05:50:42.751Z,6.13
2019-02-10T05:53:10.155Z,6.23
2019-02-10T05:55:37.506Z,5.73
2019-02-10T05:58:04.877Z,5.73
2019-02-10T06:00:32.274Z,6.93
2019-02-10T06:02:59.612Z,6.90
2019-02-10T06:05:28.382Z,6.37
2019-02-10T06:07:55.728Z,6.97
2019-02-10T06:10:23.145Z,6.53
2019-02-10T06:12:50.497Z,6.53
2019-02-10T06:15:17.895Z,6.80
2019-02-10T06:17:45.287Z,6.37
2019-02-10T06:20:12.622Z,6.50
2019-02-10T06:22:40.402Z,6.40
2019-02-10T06:25:07.898Z,6.20
2019-02-10T06:27:35.309Z,6.53
2019-02-10T06:30:02.705Z,6.13
2019-02-10T06:32:30.087Z,6.10
2019-02-10T06:34:57.497Z,6.50
2019-02-10T06:37:24.874Z,6.47
2019-02-10T06:39:52.240Z,6.77
2019-02-10T06:42:19.599Z,6.73
2019-02-10T06:44:46.971Z,7.10
2019-02-10T06:47:14.379Z,6.77
2019-02-10T06:49:41.746Z,7.20
2019-02-10T06:52:09.221Z,7.23
2019-02-10T06:54:42.714Z,7.03
2019-02-10T06:57:10.059Z,7.63
2019-02-10T07:00:02.769Z,7.13
2019-02-10T07:02:55.777Z,7.00
2019-02-10T07:05:23.156Z,7.40
2019-02-10T07:07:50.555Z,6.87
2019-02-10T07:10:17.912Z,6.80
2019-02-10T07:12:46.867Z,6.90
2019-02-10T07:15:50.847Z,6.97
2019-02-10T07:18:54.949Z,7.43
2019-02-10T07:21:22.947Z,7.77
2019-02-10T07:24:32.177Z,7.63
2019-02-10T07:27:21.035Z,6.90
2019-02-10T07:30:33.964Z,7.30
2019-02-10T07:33:04.718Z,8.30
2019-02-10T07:36:13.647Z,8.40
2019-02-10T07:39:21.962Z,7.97
2019-02-10T07:42:31.180Z,7.40
2019-02-10T07:45:38.767Z,7.97
2019-02-10T07:48:37.476Z,7.60
2019-02-10T07:51:32.591Z,7.30
2019-02-10T07:54:42.114Z,7.10
2019-02-10T07:57:43.067Z,7.50
2019-02-10T08:00:33.603Z,8.20
2019-02-10T08:03:46.397Z,8.53
2019-02-10T08:06:46.715Z,8.40
2019-02-10T08:09:35.187Z,8.10
2019-02-10T08:12:10.235Z,7.83
2019-02-10T08:15:00.976Z,8.17
2019-02-10T08:18:06.307Z,8.50
2019-02-10T08:20:49.776Z,8.37
2019-02-10T08:23:39.546Z,8.10
2019-02-10T08:26:46.038Z,7.77
2019-02-10T08:29:42.702Z,7.63
2019-02-10T08:32:53.712Z,7.30
2019-02-10T08:35:57.244Z,7.07
2019-02-10T08:39:18.317Z,6.87
2019-02-10T08:41:59.979Z,7.53
2019-02-10T08:44:52.277Z,7.00
2019-02-10T08:47:35.108Z,7.60
2019-02-10T08:50:43.962Z,7.57
2019-02-10T08:53:15.805Z,7.83
2019-02-10T08:55:43.295Z,7.87
2019-02-10T08:58:10.712Z,7.10
2019-02-10T09:00:38.085Z,7.47
2019-02-10T09:03:05.477Z,7.47
2019-02-10T09:05:32.909Z,7.60
2019-02-10T09:08:00.318Z,7.33
2019-02-10T09:10:27.694Z,7.40
2019-02-10T09:12:55.105Z,7.30
2019-02-10T09:15:22.456Z,7.70
2019-02-10T09:17:49.845Z,7.77
2019-02-10T09:20:17.237Z,7.27
2019-02-10T09:22:44.781Z,8.13
2019-02-10T09:25:12.253Z,7.77
2019-02-10T09:27:39.661Z,9.30
2019-02-10T09:30:08.374Z,8.97
2019-02-10T09:32:35.761Z,8.80
2019-02-10T09:35:03.585Z,8.80
2019-02-10T09:37:30.962Z,8.23
2019-02-10T09:39:58.383Z,8.17
2019-02-10T09:42:25.845Z,7.63
2019-02-10T09:44:53.222Z,7.80
2019-02-10T09:47:20.679Z,7.67
2019-02-10T09:49:48.065Z,7.63
2019-02-10T09:52:15.481Z,13.23
2019-02-10T09:54:42.853Z,8.33
2019-02-10T09:57:10.337Z,9.33
2019-02-10T09:59:37.810Z,9.23
2019-02-10T10:02:05.470Z,9.23
2019-02-10T10:04:33.005Z,8.17
2019-02-10T10:07:00.478Z,9.67
2019-02-10T10:09:27.973Z,9.17
2019-02-10T10:11:55.400Z,13.53
2019-02-10T10:14:30.526Z,8.90
2019-02-10T10:16:52.287Z,8.73
2019-02-10T10:19:19.750Z,7.67
2019-02-10T10:21:47.170Z,8.37
2019-02-10T10:24:14.608Z,8.40
2019-02-10T10:26:42.227Z,7.73
2019-02-10T10:29:09.654Z,7.60
2019-02-10T10:31:37.152Z,7.80
2019-02-10T10:34:05.360Z,7.53
2019-02-10T10:36:32.984Z,7.53
2019-02-10T10:39:00.732Z,9.60
2019-02-10T10:41:28.546Z,9.10
2019-02-10T10:43:56.403Z,7.97
2019-02-10T10:46:24.302Z,8.23
2019-02-10T10:48:52.251Z,7.77
2019-02-10T10:51:20.057Z,7.13
2019-02-10T10:53:47.963Z,7.67
2019-02-10T10:56:21.612Z,7.53
2019-02-10T10:58:49.574Z,7.27
2019-02-10T11:01:24.983Z,7.60
2019-02-10T11:03:47.303Z,8.07
2019-02-10T11:06:15.059Z,7.67
2019-02-10T11:08:42.926Z,8.20
2019-02-10T11:11:11.556Z,6.10
2019-02-10T11:13:38.990Z,6.17
2019-02-10T11:16:06.667Z,5.70
2019-02-10T11:18:34.170Z,5.93
2019-02-10T11:21:01.817Z,5.43
2019-02-10T11:23:29.432Z,5.00
2019-02-10T11:25:57.215Z,6.63
2019-02-10T11:28:24.834Z,5.40
2019-02-10T11:30:52.735Z,6.77
2019-02-10T11:33:20.494Z,5.10
2019-02-10T11:35:48.261Z,6.77
2019-02-10T11:38:16.071Z,5.20
2019-02-10T11:40:43.605Z,5.93
2019-02-10T11:43:11.516Z,5.20
2019-02-10T11:45:39.385Z,6.00
2019-02-10T11:48:07.902Z,4.07
2019-02-10T11:50:36.036Z,5.70
2019-02-10T11:53:03.756Z,5.50
2019-02-10T11:55:31.434Z,6.87
2019-02-10T11:57:59.049Z,6.20
2019-02-10T12:00:26.813Z,6.30
2019-02-10T12:02:54.637Z,5.60
2019-02-10T12:05:22.380Z,4.20
2019-02-10T12:07:50.190Z,4.10
2019-02-10T12:10:18.008Z,2.83
2019-02-10T12:12:46.006Z,3.93
2019-02-10T12:15:14.160Z,2.93
2019-02-10T12:17:42.220Z,1.70
2019-02-10T12:20:10.449Z,1.43
2019-02-10T12:22:38.290Z,1.43
2019-02-10T12:25:06.437Z,1.60
2019-02-10T12:27:34.340Z,1.30
2019-02-10T12:30:03.225Z,1.30
2019-02-10T12:32:31.285Z,1.50
2019-02-10T12:34:59.185Z,1.63
2019-02-10T12:37:32.344Z,1.53
2019-02-10T12:39:59.854Z,1.00
2019-02-10T12:42:26.861Z,1.00
2019-02-10T12:44:54.904Z,1.00
2019-02-10T12:47:22.963Z,1.30
2019-02-10T12:49:50.833Z,0.90
2019-02-10T12:52:18.816Z,1.07
2019-02-10T12:54:46.842Z,1.20
2019-02-10T12:57:14.758Z,0.93
2019-02-10T12:59:42.715Z,0.90
2019-02-10T13:02:10.660Z,1.37
2019-02-10T13:04:38.517Z,1.10
2019-02-10T13:07:06.450Z,1.27
2019-02-10T13:09:34.399Z,0.73
2019-02-10T13:12:02.353Z,0.90
2019-02-10T13:14:30.445Z,1.00
2019-02-10T13:16:58.393Z,0.90
2019-02-10T13:19:26.412Z,0.83
2019-02-10T13:21:54.367Z,1.00
2019-02-10T13:24:22.221Z,0.93
2019-02-10T13:26:50.045Z,1.50
2019-02-10T13:29:18.095Z,1.10
2019-02-10T13:31:46.057Z,0.80
2019-02-10T13:34:16.043Z,0.83
2019-02-10T13:36:43.964Z,1.00
2019-02-10T13:39:12.794Z,0.73
2019-02-10T13:41:39.162Z,0.70
2019-02-10T13:44:07.074Z,1.10
2019-02-10T13:46:35.049Z,0.70
2019-02-10T13:49:03.127Z,0.97
2019-02-10T13:51:31.087Z,0.93
2019-02-10T13:53:59.303Z,0.80
2019-02-10T13:56:27.267Z,0.77
2019-02-10T13:58:55.178Z,0.90
2019-02-10T14:01:23.258Z,0.73
2019-02-10T14:03:51.294Z,0.90
2019-02-10T14:06:19.233Z,0.90
2019-02-10T14:08:47.109Z,1.07
2019-02-10T14:11:14.984Z,0.90
2019-02-10T14:13:42.930Z,0.60
2019-02-10T14:16:10.973Z,0.83
2019-02-10T14:18:38.947Z,0.80
2019-02-10T14:21:06.900Z,0.80
2019-02-10T14:23:34.829Z,0.93
2019-02-10T14:26:03.422Z,0.80
2019-02-10T14:28:31.445Z,0.90
2019-02-10T14:30:59.598Z,0.80
2019-02-10T14:33:38.506Z,0.77
2019-02-10T14:36:01.433Z,0.70
2019-02-10T14:38:36.301Z,0.90
2019-02-10T14:41:01.892Z,0.70
2019-02-10T14:43:29.764Z,0.90
2019-02-10T14:45:57.740Z,0.87
2019-02-10T14:48:28.134Z,1.10
2019-02-10T14:50:56.167Z,0.97
2019-02-10T14:53:24.154Z,1.00
2019-02-10T14:55:53.518Z,0.80
2019-02-10T14:58:21.535Z,0.80
2019-02-10T15:00:49.552Z,0.83
2019-02-10T15:03:17.628Z,0.70
2019-02-10T15:05:45.552Z,0.73
2019-02-10T15:08:13.609Z,0.87
2019-02-10T15:10:42.808Z,1.20
2019-02-10T15:13:10.800Z,1.00
2019-02-10T15:15:38.839Z,0.87
2019-02-10T15:18:06.861Z,0.53
2019-02-10T15:20:35.258Z,0.90
2019-02-10T15:23:03.292Z,0.70
2019-02-10T15:25:31.255Z,0.80
2019-02-10T15:27:59.331Z,0.67
2019-02-10T15:30:27.354Z,0.90
2019-02-10T15:32:55.287Z,0.80
2019-02-10T15:35:23.363Z,0.67
2019-02-10T15:37:51.317Z,0.90
2019-02-10T15:40:20.380Z,0.53
2019-02-10T15:42:48.366Z,0.80
2019-02-10T15:45:16.301Z,0.70
2019-02-10T15:47:44.324Z,0.83
2019-02-10T15:50:12.295Z,0.70
2019-02-10T15:52:40.351Z,0.70
2019-02-10T15:55:10.968Z,0.73
2019-02-10T15:57:39.106Z,0.50
2019-02-10T16:00:10.617Z,0.77
2019-02-10T16:02:38.736Z,0.60
2019-02-10T16:05:06.809Z,0.70
2019-02-10T16:07:34.890Z,0.60
2019-02-10T16:10:04.758Z,0.60
2019-02-10T16:12:32.738Z,0.50
2019-02-10T16:15:00.859Z,0.40
2019-02-10T16:17:29.124Z,0.80
2019-02-10T16:19:57.131Z,0.63
2019-02-10T16:22:25.001Z,0.50
2019-02-10T16:24:52.987Z,0.50
2019-02-10T16:27:21.487Z,1.00
2019-02-10T16:29:49.622Z,0.80
2019-02-10T16:32:17.678Z,0.63
2019-02-10T16:34:45.657Z,0.80
2019-02-10T16:37:13.683Z,1.20
2019-02-10T16:39:41.807Z,0.90
2019-02-10T16:42:09.861Z,0.70
2019-02-10T16:44:37.902Z,0.70
2019-02-10T16:47:05.918Z,0.40
2019-02-10T16:49:33.956Z,0.50
2019-02-10T16:52:01.988Z,0.80
2019-02-10T16:54:30.044Z,0.60
2019-02-10T16:56:58.046Z,0.70
2019-02-10T16:59:26.325Z,0.63
2019-02-10T17:01:54.326Z,1.50
2019-02-10T17:04:22.532Z,0.57
2019-02-10T17:06:50.609Z,0.60
2019-02-10T17:09:18.766Z,0.60
2019-02-10T17:11:46.855Z,0.60
2019-02-10T17:14:14.913Z,0.40
2019-02-10T17:16:43.108Z,0.67
2019-02-10T17:19:11.243Z,0.80
2019-02-10T17:21:39.465Z,6.80
2019-02-10T17:24:07.645Z,1.17
2019-02-10T17:26:35.663Z,1.00
2019-02-10T17:29:03.764Z,0.73
2019-02-10T17:31:33.467Z,3.57
2019-02-10T17:34:01.474Z,0.60
2019-02-10T17:36:29.582Z,0.53
2019-02-10T17:38:57.592Z,0.73
2019-02-10T17:41:29.762Z,0.77
2019-02-10T17:43:57.735Z,0.67
2019-02-10T17:46:25.876Z,0.93
2019-02-10T17:48:54.114Z,1.30
2019-02-10T17:51:22.239Z,1.00
2019-02-10T17:53:50.513Z,0.70
2019-02-10T17:56:18.550Z,1.10
2019-02-10T17:58:46.597Z,1.53
2019-02-10T18:01:14.607Z,1.57
2019-02-10T18:03:42.619Z,0.80
2019-02-10T18:06:10.578Z,0.80
2019-02-10T18:08:38.852Z,1.93
2019-02-10T18:11:07.186Z,0.60
2019-02-10T18:13:36.591Z,0.40
2019-02-10T18:16:23.601Z,0.50
2019-02-10T18:19:02.004Z,0.27
2019-02-10T18:21:53.434Z,0.57
2019-02-10T18:24:39.900Z,0.30
2019-02-10T18:27:15.588Z,0.33
2019-02-10T18:30:01.946Z,0.40
2019-02-10T18:32:45.703Z,0.50
2019-02-10T18:35:23.655Z,0.30
2019-02-10T18:38:10.098Z,52.47
2019-02-10T18:40:56.250Z,15.30
2019-02-10T18:43:52.741Z,6.40
2019-02-10T18:46:46.100Z,1.17
2019-02-10T18:49:33.686Z,0.60
2019-02-10T18:52:18.550Z,0.60
2019-02-10T18:55:04.484Z,0.73
2019-02-10T18:57:55.032Z,0.70
2019-02-10T19:00:41.381Z,0.60
2019-02-10T19:03:27.712Z,0.70
2019-02-10T19:06:12.363Z,1.03
2019-02-10T19:09:03.776Z,0.70
2019-02-10T19:11:49.343Z,1.10
2019-02-10T19:14:35.634Z,0.73
2019-02-10T19:17:32.217Z,0.90
2019-02-10T19:20:18.941Z,1.30
2019-02-10T19:23:05.840Z,0.50
2019-02-10T19:25:56.495Z,1.10
2019-02-10T19:28:41.504Z,0.20
2019-02-10T19:31:34.573Z,0.43
2019-02-10T19:34:15.471Z,0.20
2019-02-10T19:36:55.442Z,0.27
2019-02-10T19:39:36.959Z,0.40
2019-02-10T19:42:15.046Z,0.17
2019-02-10T19:45:01.013Z,0.10
2019-02-10T19:47:47.212Z,0.00
2019-02-10T19:50:33.197Z,0.00
2019-02-10T19:53:18.482Z,0.00
2019-02-10T19:56:04.788Z,0.10
2019-02-10T19:58:55.215Z,0.00
2019-02-10T20:01:48.284Z,1.10
2019-02-10T20:04:34.417Z,0.10
2019-02-10T20:07:16.188Z,0.30
2019-02-10T20:10:09.633Z,0.07
2019-02-10T20:13:08.314Z,0.13
2019-02-10T20:16:11.054Z,0.10
2019-02-10T20:18:57.437Z,0.17
2019-02-10T20:21:43.519Z,0.00
2019-02-10T20:24:25.020Z,0.03
2019-02-10T20:27:15.471Z,0.17
2019-02-10T20:30:08.779Z,0.27
2019-02-10T20:33:08.339Z,0.30
2019-02-10T20:35:53.149Z,0.37
2019-02-10T20:38:29.563Z,0.33
2019-02-10T20:41:17.011Z,0.47
2019-02-10T20:44:13.828Z,0.30
2019-02-10T20:47:04.103Z,0.10
2019-02-10T20:49:54.116Z,0.40
2019-02-10T20:52:46.298Z,0.33
2019-02-10T20:55:30.956Z,0.30
2019-02-10T20:58:33.538Z,0.43
2019-02-10T21:01:19.391Z,0.20
2019-02-10T21:04:09.629Z,0.40
2019-02-10T21:07:01.600Z,0.40
2019-02-10T21:09:51.786Z,0.40
2019-02-10T21:12:36.217Z,0.30
2019-02-10T21:15:24.163Z,0.53
2019-02-10T21:18:11.319Z,0.67
2019-02-10T21:21:01.820Z,1.10
2019-02-10T21:23:55.323Z,1.00
2019-02-10T21:26:46.081Z,0.60
2019-02-10T21:29:32.041Z,0.50
2019-02-10T21:32:22.501Z,0.23
2019-02-10T21:35:12.530Z,0.40
2019-02-10T21:37:59.978Z,0.20
2019-02-10T21:40:53.278Z,0.30
2019-02-10T21:43:32.102Z,0.50
2019-02-10T21:46:28.674Z,0.50
2019-02-10T21:49:00.171Z,0.43
2019-02-10T21:51:28.250Z,0.50
2019-02-10T21:53:56.100Z,0.30
2019-02-10T21:56:23.963Z,0.30
2019-02-10T21:58:51.866Z,0.30
2019-02-10T22:01:20.530Z,0.30
2019-02-10T22:03:48.494Z,0.50
2019-02-10T22:06:16.713Z,0.20
2019-02-10T22:08:44.361Z,0.37
2019-02-10T22:11:12.203Z,0.30
2019-02-10T22:13:39.834Z,0.20
2019-02-10T22:16:07.424Z,0.20
2019-02-10T22:18:34.964Z,0.30
2019-02-10T22:21:02.441Z,0.20
2019-02-10T22:23:29.962Z,0.20
2019-02-10T22:25:57.501Z,0.20
2019-02-10T22:28:24.959Z,0.20
2019-02-10T22:30:52.464Z,0.20
2019-02-10T22:33:19.925Z,0.23
2019-02-10T22:35:47.360Z,0.50
2019-02-10T22:38:14.745Z,0.30
2019-02-10T22:40:42.186Z,0.23
2019-02-10T22:43:09.644Z,0.27
2019-02-10T22:45:37.105Z,0.73
2019-02-10T22:48:04.512Z,0.53
2019-02-10T22:50:31.963Z,0.20
2019-02-10T22:52:59.341Z,0.17
2019-02-10T22:55:26.789Z,0.30
2019-02-10T22:57:54.212Z,0.20
2019-02-10T23:00:45.233Z,0.30
2019-02-10T23:03:12.641Z,0.40
2019-02-10T23:05:40.057Z,0.87
2019-02-10T23:08:07.458Z,0.80
2019-02-10T23:10:34.844Z,0.60
2019-02-10T23:13:02.319Z,0.70
2019-02-10T23:15:29.724Z,0.57
2019-02-10T23:17:57.102Z,0.80
2019-02-10T23:20:24.622Z,0.80
2019-02-10T23:22:52.047Z,0.53
2019-02-10T23:25:20.013Z,0.40
2019-02-10T23:27:47.747Z,0.37
2019-02-10T23:30:15.133Z,0.37
2019-02-10T23:32:42.544Z,0.30
2019-02-10T23:35:09.902Z,0.30
2019-02-10T23:37:37.280Z,0.27
2019-02-10T23:40:05.277Z,0.23
2019-02-10T23:42:32.652Z,0.40
2019-02-10T23:45:00.006Z,0.30
2019-02-10T23:47:27.430Z,0.30
2019-02-10T23:49:54.834Z,0.40
2019-02-10T23:52:22.197Z,0.50
2019-02-10T23:54:49.760Z,0.60
2019-02-10T23:57:17.135Z,0.70
2019-02-10T23:59:44.492Z,0.40
